Time;durP1;ratioP1;P1;durP2;ratioP2;P2;SDS_P1;SDS_P2;PMS_P1;PMS_P2;Temp;Humidity;BMP_temperature;BMP_pressure;BME280_temperature;BME280_humidity;BME280_pressure;Samples;Min_cycle;Max_cycle;Signal;HPM_P1;HPM_P2
2023/06/28 00:00:29;;;;;;;12.25;4.93;;;14.90;99.90;;;;;;4956905;28;20118;-47
2023/06/28 00:02:57;;;;;;;9.52;4.30;;;14.90;99.90;;;;;;4957891;28;20043;-49
2023/06/28 00:05:23;;;;;;;9.48;4.30;;;14.90;99.90;;;;;;4940471;28;20527;-46
2023/06/28 00:07:49;;;;;;;8.13;4.45;;;14.80;99.90;;;;;;4965895;28;20129;-50
2023/06/28 00:10:18;;;;;;;8.50;4.50;;;14.80;99.90;;;;;;4966830;28;20039;-47
2023/06/28 00:12:43;;;;;;;10.43;4.57;;;14.80;99.90;;;;;;4950798;28;20163;-48
2023/06/28 00:15:09;;;;;;;12.57;4.55;;;14.80;99.90;;;;;;4943566;28;20038;-47
2023/06/28 00:17:35;;;;;;;10.38;5.03;;;14.80;99.90;;;;;;4956878;28;20051;-52
2023/06/28 00:20:07;;;;;;;9.35;4.28;;;14.80;99.90;;;;;;4957594;28;20065;-53
2023/06/28 00:22:33;;;;;;;14.90;5.10;;;14.80;99.90;;;;;;4959552;28;20035;-48
2023/06/28 00:25:00;;;;;;;10.93;4.72;;;14.80;99.90;;;;;;4961078;28;20257;-48
2023/06/28 00:27:27;;;;;;;10.77;4.97;;;14.80;99.90;;;;;;4942337;28;20054;-46
2023/06/28 00:29:53;;;;;;;14.63;5.35;;;14.80;99.90;;;;;;4958919;28;20066;-50
2023/06/28 00:32:19;;;;;;;10.43;4.05;;;14.80;99.90;;;;;;4955725;28;20047;-47
2023/06/28 00:34:44;;;;;;;7.88;4.72;;;14.80;99.90;;;;;;4958497;28;22768;-47
2023/06/28 00:37:10;;;;;;;12.45;4.70;;;14.80;99.90;;;;;;4942096;28;20518;-47
2023/06/28 00:39:36;;;;;;;11.85;4.85;;;14.80;99.90;;;;;;4958754;28;20098;-49
2023/06/28 00:42:02;;;;;;;9.05;4.20;;;14.80;99.90;;;;;;4955616;28;20039;-47
2023/06/28 00:44:27;;;;;;;9.63;4.60;;;14.80;99.90;;;;;;4955108;28;20109;-46
2023/06/28 00:46:55;;;;;;;12.38;4.63;;;14.80;99.90;;;;;;4955050;28;20043;-48
2023/06/28 00:49:23;;;;;;;9.10;4.50;;;14.80;99.90;;;;;;4955112;28;20654;-48
2023/06/28 00:51:50;;;;;;;9.05;4.70;;;14.80;99.90;;;;;;4954976;28;20035;-48
2023/06/28 00:54:16;;;;;;;12.95;4.85;;;14.70;99.90;;;;;;4956801;28;20067;-48
2023/06/28 00:56:43;;;;;;;7.40;4.10;;;14.70;99.90;;;;;;4955333;28;20085;-48
2023/06/28 00:59:09;;;;;;;14.63;5.10;;;14.70;99.90;;;;;;4954057;28;20046;-53
2023/06/28 01:01:37;;;;;;;8.00;4.93;;;14.70;99.90;;;;;;4954469;28;20050;-49
2023/06/28 01:04:05;;;;;;;10.13;4.45;;;14.70;99.90;;;;;;4951190;28;20137;-48
2023/06/28 01:06:35;;;;;;;11.10;4.38;;;14.70;99.90;;;;;;4954942;28;20467;-49
2023/06/28 01:09:03;;;;;;;10.45;4.80;;;14.70;99.90;;;;;;4953287;28;21743;-48
2023/06/28 01:11:30;;;;;;;7.38;4.18;;;14.70;99.90;;;;;;4953244;28;20043;-48
2023/06/28 01:13:56;;;;;;;10.50;5.22;;;14.70;99.90;;;;;;4949687;28;20039;-50
2023/06/28 01:16:22;;;;;;;8.20;4.45;;;14.60;99.90;;;;;;4951062;28;20487;-50
2023/06/28 01:18:47;;;;;;;12.40;4.85;;;14.60;99.90;;;;;;4952037;28;20042;-47
2023/06/28 01:21:16;;;;;;;13.57;4.47;;;14.60;99.90;;;;;;4939425;28;20038;-47
2023/06/28 01:23:42;;;;;;;11.38;4.93;;;14.60;99.90;;;;;;4952852;28;20472;-48
2023/06/28 01:26:11;;;;;;;13.95;5.18;;;14.60;99.90;;;;;;4955820;28;20055;-47
2023/06/28 01:28:37;;;;;;;14.23;4.95;;;14.60;99.90;;;;;;4950790;28;20050;-46
2023/06/28 01:31:04;;;;;;;11.38;4.85;;;14.60;99.90;;;;;;4952446;28;20113;-48
2023/06/28 01:33:30;;;;;;;12.30;5.45;;;14.60;99.90;;;;;;4934739;28;20512;-49
2023/06/28 01:35:59;;;;;;;10.77;4.95;;;14.60;99.90;;;;;;4933989;28;20078;-49
2023/06/28 01:38:27;;;;;;;9.07;4.95;;;14.60;99.90;;;;;;4933882;29;20039;-48
2023/06/28 01:40:53;;;;;;;11.57;5.20;;;14.60;99.90;;;;;;4936696;28;20039;-51
2023/06/28 01:43:20;;;;;;;9.55;4.82;;;14.60;99.90;;;;;;4933538;29;20051;-50
2023/06/28 01:45:46;;;;;;;7.88;4.75;;;14.60;99.90;;;;;;4936422;28;20051;-47
2023/06/28 01:48:13;;;;;;;10.38;4.47;;;14.60;99.90;;;;;;4935264;29;20082;-47
2023/06/28 01:50:39;;;;;;;12.90;4.85;;;14.60;99.90;;;;;;4934642;28;20520;-49
2023/06/28 01:53:06;;;;;;;12.48;5.25;;;14.60;99.90;;;;;;4939295;29;20082;-49
2023/06/28 01:55:33;;;;;;;8.80;4.28;;;14.60;99.90;;;;;;4932986;28;20123;-50
2023/06/28 01:57:59;;;;;;;9.10;4.20;;;14.60;99.90;;;;;;4936952;28;20404;-51
2023/06/28 02:00:25;;;;;;;9.18;4.15;;;14.60;99.90;;;;;;4935475;28;20071;-48
2023/06/28 02:02:52;;;;;;;12.23;4.32;;;14.60;99.90;;;;;;4933094;29;20036;-47
2023/06/28 02:05:19;;;;;;;12.32;4.45;;;14.60;99.90;;;;;;4924728;28;20046;-50
2023/06/28 02:07:44;;;;;;;9.52;4.75;;;14.60;99.90;;;;;;4933432;29;20119;-46
2023/06/28 02:10:10;;;;;;;13.00;5.40;;;14.70;99.90;;;;;;4914437;28;20225;-48
2023/06/28 02:12:36;;;;;;;12.15;4.65;;;14.60;99.90;;;;;;4939560;29;20050;-50
2023/06/28 02:15:04;;;;;;;9.10;4.28;;;14.70;99.90;;;;;;4940139;28;20043;-46
2023/06/28 02:17:31;;;;;;;9.13;4.68;;;14.70;99.90;;;;;;4935037;29;20066;-47
2023/06/28 02:19:58;;;;;;;10.93;5.07;;;14.70;99.90;;;;;;4938865;28;20047;-47
2023/06/28 02:22:25;;;;;;;16.02;5.50;;;14.70;99.90;;;;;;4941437;28;20047;-47
2023/06/28 02:24:51;;;;;;;10.05;5.30;;;14.70;99.90;;;;;;4944167;29;20522;-47
2023/06/28 02:27:17;;;;;;;10.48;5.60;;;14.70;99.90;;;;;;4941309;28;20039;-47
2023/06/28 02:29:43;;;;;;;13.55;5.57;;;14.70;99.90;;;;;;4940847;29;20623;-48
2023/06/28 02:32:09;;;;;;;10.35;5.53;;;14.70;99.90;;;;;;4939300;28;20036;-49
2023/06/28 02:34:35;;;;;;;9.43;5.10;;;14.70;99.90;;;;;;4958384;28;20055;-48
2023/06/28 02:37:01;;;;;;;11.60;5.63;;;14.70;99.90;;;;;;4959353;28;20395;-49
2023/06/28 02:39:27;;;;;;;11.70;5.95;;;14.70;99.90;;;;;;4961740;28;20050;-47
2023/06/28 02:41:52;;;;;;;13.02;5.40;;;14.70;99.90;;;;;;4958063;28;20039;-46
2023/06/28 02:44:18;;;;;;;13.00;5.97;;;14.70;99.90;;;;;;4943136;28;20042;-53
2023/06/28 02:46:44;;;;;;;9.70;5.30;;;14.80;99.90;;;;;;4958653;28;20050;-51
2023/06/28 02:49:10;;;;;;;15.65;5.38;;;14.70;99.90;;;;;;4960607;28;20484;-50
2023/06/28 02:51:35;;;;;;;16.80;5.88;;;14.70;99.90;;;;;;4961071;28;20467;-49
2023/06/28 02:54:02;;;;;;;12.02;5.97;;;14.80;99.90;;;;;;4955799;28;20436;-48
2023/06/28 02:56:28;;;;;;;9.88;5.40;;;14.80;99.90;;;;;;4956678;28;20085;-48
2023/06/28 02:58:54;;;;;;;11.20;5.68;;;14.80;99.90;;;;;;4957736;28;20034;-48
2023/06/28 03:01:23;;;;;;;10.23;5.07;;;14.80;99.90;;;;;;4956826;28;20043;-47
2023/06/28 03:03:48;;;;;;;9.90;5.30;;;14.80;99.90;;;;;;4960167;28;20043;-50
2023/06/28 03:06:15;;;;;;;9.70;5.63;;;14.80;99.90;;;;;;4940117;28;20055;-48
2023/06/28 03:08:41;;;;;;;11.68;5.28;;;14.80;99.90;;;;;;4954158;28;20043;-49
2023/06/28 03:11:07;;;;;;;12.35;5.47;;;14.80;99.90;;;;;;4956421;28;20035;-50
2023/06/28 03:13:33;;;;;;;16.25;5.70;;;14.80;99.90;;;;;;4953080;28;20050;-49
2023/06/28 03:15:59;;;;;;;11.43;5.78;;;14.80;99.90;;;;;;4925854;28;20047;-47
2023/06/28 03:18:25;;;;;;;12.57;5.43;;;14.80;99.90;;;;;;4954293;28;20042;-47
2023/06/28 03:20:51;;;;;;;8.48;5.32;;;14.80;99.90;;;;;;4942410;28;20776;-49
2023/06/28 03:23:17;;;;;;;7.90;4.97;;;14.90;99.90;;;;;;4957649;28;20094;-49
2023/06/28 03:25:43;;;;;;;17.15;6.85;;;14.90;99.90;;;;;;4956643;28;20138;-48
2023/06/28 03:28:08;;;;;;;8.65;5.05;;;14.90;99.90;;;;;;4957868;28;20027;-47
2023/06/28 03:30:34;;;;;;;11.13;5.57;;;14.90;99.90;;;;;;4958389;28;20039;-47
2023/06/28 03:33:00;;;;;;;12.02;6.18;;;14.90;99.90;;;;;;4943156;28;20493;-48
2023/06/28 03:35:26;;;;;;;10.15;5.55;;;15.00;99.90;;;;;;4956989;28;20077;-47
2023/06/28 03:37:53;;;;;;;12.02;5.30;;;15.00;99.90;;;;;;4945376;28;20054;-46
2023/06/28 03:40:20;;;;;;;16.88;5.90;;;15.00;99.90;;;;;;4957346;28;20617;-50
2023/06/28 03:42:47;;;;;;;13.20;5.07;;;15.00;99.90;;;;;;4955383;28;20496;-47
2023/06/28 03:45:16;;;;;;;12.10;5.47;;;15.00;99.90;;;;;;4955761;28;20074;-48
2023/06/28 03:47:42;;;;;;;14.23;4.95;;;15.10;99.90;;;;;;4953177;28;20043;-48
2023/06/28 03:50:08;;;;;;;15.18;5.30;;;15.00;99.90;;;;;;4957986;28;20035;-47
2023/06/28 03:52:36;;;;;;;13.02;5.47;;;15.10;99.90;;;;;;4936395;28;20043;-49
2023/06/28 03:55:10;;;;;;;9.10;4.82;;;15.10;99.90;;;;;;4955813;28;20078;-51
2023/06/28 03:57:36;;;;;;;9.50;5.03;;;15.10;99.90;;;;;;4956454;28;20047;-50
2023/06/28 04:00:04;;;;;;;8.65;4.43;;;15.10;99.90;;;;;;4939719;28;20674;-50
2023/06/28 04:02:29;;;;;;;9.57;4.53;;;15.10;99.90;;;;;;4956983;28;20035;-47
2023/06/28 04:04:55;;;;;;;11.32;4.65;;;15.10;99.90;;;;;;4953248;28;20102;-49
2023/06/28 04:07:24;;;;;;;6.70;3.58;;;15.10;99.90;;;;;;4957499;28;20078;-48
2023/06/28 04:09:51;;;;;;;11.38;3.95;;;15.20;99.90;;;;;;4959243;28;20046;-50
2023/06/28 04:12:17;;;;;;;11.18;3.85;;;15.20;99.90;;;;;;4958862;28;20126;-48
2023/06/28 04:14:42;;;;;;;5.88;3.50;;;15.20;99.90;;;;;;4954093;28;20125;-50
2023/06/28 04:17:08;;;;;;;6.55;3.00;;;15.20;99.90;;;;;;4953737;28;20046;-50
2023/06/28 04:19:34;;;;;;;7.88;2.97;;;15.20;99.90;;;;;;4956364;28;20047;-50
2023/06/28 04:22:00;;;;;;;8.95;3.60;;;15.20;99.90;;;;;;4958829;28;20464;-47
2023/06/28 04:24:25;;;;;;;6.63;2.75;;;15.20;99.90;;;;;;4953638;28;20585;-50
2023/06/28 04:26:51;;;;;;;7.18;3.13;;;15.20;99.90;;;;;;4944962;28;20041;-49
2023/06/28 04:29:17;;;;;;;6.47;3.03;;;15.20;99.90;;;;;;4957251;28;20053;-51
2023/06/28 04:31:43;;;;;;;5.25;2.53;;;15.20;99.90;;;;;;4938270;28;20055;-48
2023/06/28 04:34:08;;;;;;;6.60;3.13;;;15.30;99.90;;;;;;4955804;28;20070;-51
2023/06/28 04:36:34;;;;;;;4.32;2.40;;;15.20;99.90;;;;;;4956247;28;20346;-47
2023/06/28 04:39:03;;;;;;;5.57;2.70;;;15.20;99.90;;;;;;4935710;28;20109;-48
2023/06/28 04:41:29;;;;;;;5.95;2.40;;;15.20;99.90;;;;;;4954496;28;20237;-52
2023/06/28 04:43:56;;;;;;;5.78;2.90;;;15.20;99.90;;;;;;4955127;28;20825;-48
2023/06/28 04:46:22;;;;;;;4.22;2.47;;;15.20;99.90;;;;;;4935646;28;20444;-49
2023/06/28 04:48:50;;;;;;;8.48;2.78;;;15.20;99.90;;;;;;4956944;28;20034;-49
2023/06/28 04:51:17;;;;;;;5.00;2.72;;;15.30;99.90;;;;;;4942481;28;20035;-50
2023/06/28 04:53:43;;;;;;;6.45;3.10;;;15.30;99.90;;;;;;4958583;28;20031;-52
2023/06/28 04:56:09;;;;;;;5.63;3.45;;;15.30;99.90;;;;;;4958533;28;20034;-49
2023/06/28 04:58:37;;;;;;;9.18;3.70;;;15.30;99.90;;;;;;4954521;28;20043;-47
2023/06/28 05:01:05;;;;;;;9.82;3.78;;;15.30;99.90;;;;;;4956857;28;20084;-48
2023/06/28 05:03:31;;;;;;;5.00;3.72;;;15.30;99.90;;;;;;4934212;28;20091;-48
2023/06/28 05:05:57;;;;;;;9.10;4.28;;;15.40;99.90;;;;;;4955660;28;20130;-48
2023/06/28 05:08:23;;;;;;;8.20;4.30;;;15.30;99.90;;;;;;4955657;28;20109;-49
2023/06/28 05:10:49;;;;;;;8.27;3.72;;;15.40;99.90;;;;;;4954330;28;22804;-48
2023/06/28 05:13:15;;;;;;;10.93;4.13;;;15.40;99.90;;;;;;4936751;28;20122;-49
2023/06/28 05:15:40;;;;;;;7.18;3.80;;;15.40;99.90;;;;;;4943753;28;20741;-50
2023/06/28 05:18:06;;;;;;;9.35;4.38;;;15.40;99.90;;;;;;4951391;28;20043;-48
2023/06/28 05:20:32;;;;;;;8.60;4.38;;;15.40;99.90;;;;;;4956497;28;20046;-47
2023/06/28 05:23:10;;;;;;;10.57;4.53;;;15.50;99.90;;;;;;4950435;28;20047;-51
2023/06/28 05:25:37;;;;;;;6.93;3.88;;;15.50;99.90;;;;;;4955035;28;20503;-51
2023/06/28 05:28:02;;;;;;;8.32;3.90;;;15.40;99.90;;;;;;4954039;28;20054;-48
2023/06/28 05:30:28;;;;;;;8.05;4.20;;;15.50;99.90;;;;;;4953290;28;20038;-50
2023/06/28 05:32:54;;;;;;;7.43;4.60;;;15.50;99.90;;;;;;4952775;28;20051;-51
2023/06/28 05:35:20;;;;;;;5.68;4.38;;;15.50;99.90;;;;;;4938761;28;20645;-48
2023/06/28 05:37:45;;;;;;;10.00;4.78;;;15.60;99.90;;;;;;4952725;28;20045;-48
2023/06/28 05:40:11;;;;;;;7.53;4.20;;;15.60;99.90;;;;;;4957439;28;20097;-52
2023/06/28 05:42:37;;;;;;;10.70;5.10;;;15.60;99.90;;;;;;4958329;28;20157;-49
2023/06/28 05:45:03;;;;;;;11.02;4.60;;;15.60;99.90;;;;;;4945090;28;20181;-54
2023/06/28 05:47:29;;;;;;;9.55;5.25;;;15.70;99.90;;;;;;4935757;28;20557;-50
2023/06/28 05:49:54;;;;;;;7.35;4.63;;;15.70;99.90;;;;;;4961414;28;20047;-48
2023/06/28 05:52:20;;;;;;;11.07;4.93;;;15.70;99.90;;;;;;4960174;28;20563;-52
2023/06/28 05:54:46;;;;;;;7.85;5.00;;;15.80;99.90;;;;;;4942248;28;20058;-49
2023/06/28 05:57:12;;;;;;;10.50;4.78;;;15.80;99.90;;;;;;4962386;28;20054;-48
2023/06/28 05:59:38;;;;;;;7.45;4.45;;;15.80;99.90;;;;;;4949004;28;20122;-50
2023/06/28 06:02:04;;;;;;;8.80;4.75;;;15.90;99.90;;;;;;4950411;28;20126;-48
2023/06/28 06:04:30;;;;;;;10.70;4.78;;;15.90;99.90;;;;;;4960996;28;20053;-47
2023/06/28 06:06:56;;;;;;;7.95;4.50;;;16.00;99.90;;;;;;4957378;28;20477;-49
2023/06/28 06:09:21;;;;;;;8.82;4.60;;;16.00;99.90;;;;;;4957887;28;20038;-50
2023/06/28 06:11:47;;;;;;;6.85;4.70;;;16.00;99.90;;;;;;4960773;28;20071;-52
2023/06/28 06:14:13;;;;;;;9.18;5.55;;;16.00;99.90;;;;;;4959859;28;20038;-50
2023/06/28 06:16:38;;;;;;;8.70;4.65;;;16.10;99.90;;;;;;4959460;28;20115;-50
2023/06/28 06:19:04;;;;;;;8.00;4.38;;;16.10;99.90;;;;;;4962325;28;20137;-49
2023/06/28 06:21:30;;;;;;;5.88;4.28;;;16.20;99.90;;;;;;4962336;28;20049;-47
2023/06/28 06:23:57;;;;;;;7.22;4.60;;;16.20;99.90;;;;;;4943290;28;20146;-51
2023/06/28 06:26:23;;;;;;;9.18;4.68;;;16.30;99.90;;;;;;4962449;28;20357;-47
2023/06/28 06:28:49;;;;;;;8.63;4.72;;;16.30;99.90;;;;;;4961914;28;20039;-49
2023/06/28 06:31:15;;;;;;;9.68;4.85;;;16.20;99.90;;;;;;4917125;28;20496;-52
2023/06/28 06:33:40;;;;;;;8.02;5.00;;;16.20;99.90;;;;;;4957843;28;20516;-51
2023/06/28 06:36:06;;;;;;;7.72;4.68;;;16.30;99.90;;;;;;4961008;28;20047;-48
2023/06/28 06:38:33;;;;;;;8.07;4.68;;;16.30;99.90;;;;;;4961542;28;20102;-48
2023/06/28 06:40:59;;;;;;;11.77;5.50;;;16.30;99.90;;;;;;4960828;28;20050;-48
2023/06/28 06:43:24;;;;;;;10.27;5.28;;;16.30;99.90;;;;;;4961746;28;20047;-50
2023/06/28 06:45:50;;;;;;;12.07;5.20;;;16.30;99.90;;;;;;4962681;28;20047;-48
2023/06/28 06:48:16;;;;;;;10.80;5.35;;;16.40;99.90;;;;;;4962066;28;20138;-51
2023/06/28 06:50:41;;;;;;;9.98;5.80;;;16.30;99.90;;;;;;4945798;28;20086;-53
2023/06/28 06:53:08;;;;;;;9.43;5.80;;;16.30;99.90;;;;;;4960384;28;20911;-52
2023/06/28 06:55:33;;;;;;;11.90;5.30;;;16.30;99.90;;;;;;4962790;28;20053;-51
2023/06/28 06:57:59;;;;;;;11.30;5.63;;;16.30;99.90;;;;;;4959525;28;20050;-49
2023/06/28 07:00:25;;;;;;;11.23;6.35;;;16.20;99.90;;;;;;4961741;28;20042;-51
2023/06/28 07:02:51;;;;;;;10.98;6.38;;;16.20;99.90;;;;;;4944963;28;20039;-52
2023/06/28 07:05:17;;;;;;;11.32;6.72;;;16.20;99.90;;;;;;4962579;28;20050;-50
2023/06/28 07:07:43;;;;;;;14.00;6.80;;;16.20;99.90;;;;;;4961138;28;20053;-50
2023/06/28 07:10:08;;;;;;;11.85;7.03;;;16.20;99.90;;;;;;4962146;28;20122;-49
2023/06/28 07:12:34;;;;;;;15.68;7.15;;;16.20;99.90;;;;;;4958698;28;20431;-52
2023/06/28 07:15:00;;;;;;;17.63;7.57;;;16.20;99.90;;;;;;4948198;28;20098;-51
2023/06/28 07:17:26;;;;;;;15.38;6.68;;;16.20;99.90;;;;;;4943821;28;20404;-50
2023/06/28 07:19:52;;;;;;;12.20;7.88;;;16.20;99.90;;;;;;4960787;28;20102;-49
2023/06/28 07:22:17;;;;;;;14.35;6.88;;;16.20;99.90;;;;;;4961641;28;20046;-48
2023/06/28 07:24:43;;;;;;;15.80;7.63;;;16.20;99.90;;;;;;4948493;28;20411;-49
2023/06/28 07:27:09;;;;;;;15.05;7.50;;;16.30;99.90;;;;;;4941676;28;20188;-48
2023/06/28 07:29:35;;;;;;;16.42;7.00;;;16.30;99.90;;;;;;4952716;28;20584;-49
2023/06/28 07:32:01;;;;;;;12.85;6.70;;;16.30;99.90;;;;;;4959226;28;20050;-53
2023/06/28 07:34:27;;;;;;;11.77;7.05;;;16.30;99.90;;;;;;4961585;28;20057;-53
2023/06/28 07:36:53;;;;;;;14.38;6.72;;;16.40;99.90;;;;;;4950891;28;20054;-49
2023/06/28 07:39:19;;;;;;;18.10;7.30;;;16.40;99.90;;;;;;4946860;28;20039;-49
2023/06/28 07:41:44;;;;;;;12.43;7.30;;;16.40;99.90;;;;;;4959436;28;20085;-48
2023/06/28 07:44:10;;;;;;;12.38;7.20;;;16.40;99.90;;;;;;4960053;28;20074;-53
2023/06/28 07:46:36;;;;;;;14.30;7.22;;;16.50;99.90;;;;;;4959204;28;20494;-48
2023/06/28 07:49:02;;;;;;;16.58;7.38;;;16.40;99.90;;;;;;4961046;28;20038;-48
2023/06/28 07:51:28;;;;;;;11.30;7.30;;;16.50;99.90;;;;;;4961346;28;20047;-51
2023/06/28 07:53:53;;;;;;;13.43;7.55;;;16.50;99.90;;;;;;4960748;28;20069;-53
2023/06/28 07:56:19;;;;;;;14.95;7.90;;;16.50;99.90;;;;;;4956225;28;20042;-48
2023/06/28 07:58:46;;;;;;;16.90;7.18;;;16.60;99.90;;;;;;4956921;28;20042;-49
2023/06/28 08:01:11;;;;;;;16.02;8.32;;;16.70;99.90;;;;;;4956873;28;20396;-47
2023/06/28 08:03:37;;;;;;;12.38;7.25;;;16.70;99.90;;;;;;4957218;28;20043;-48
2023/06/28 08:06:03;;;;;;;13.32;7.93;;;16.70;99.90;;;;;;4956630;28;20559;-51
2023/06/28 08:08:29;;;;;;;15.45;7.82;;;16.70;99.90;;;;;;4941935;28;20415;-49
2023/06/28 08:10:55;;;;;;;13.95;7.75;;;16.80;99.90;;;;;;4959851;28;20039;-50
2023/06/28 08:13:20;;;;;;;14.00;8.40;;;16.80;99.90;;;;;;4944077;28;20043;-54
2023/06/28 08:15:46;;;;;;;13.00;7.60;;;16.80;99.90;;;;;;4958714;28;20105;-52
2023/06/28 08:18:15;;;;;;;11.52;7.45;;;16.90;99.90;;;;;;4955178;28;20418;-50
2023/06/28 08:20:44;;;;;;;11.88;7.03;;;16.90;99.90;;;;;;4958363;28;20049;-49
2023/06/28 08:23:10;;;;;;;10.10;7.15;;;16.90;99.90;;;;;;4956761;28;20415;-51
2023/06/28 08:25:36;;;;;;;11.85;6.93;;;16.90;99.90;;;;;;4959858;28;20487;-53
2023/06/28 08:28:02;;;;;;;13.35;7.57;;;16.90;99.90;;;;;;4956795;28;20045;-50
2023/06/28 08:30:28;;;;;;;13.02;7.15;;;16.90;99.90;;;;;;4938209;28;20344;-49
2023/06/28 08:32:53;;;;;;;10.40;7.18;;;16.90;99.90;;;;;;4955259;28;20039;-49
2023/06/28 08:35:19;;;;;;;12.20;7.10;;;16.90;99.90;;;;;;4942767;28;20053;-51
2023/06/28 08:37:45;;;;;;;11.82;7.20;;;17.00;99.90;;;;;;4958344;28;20081;-50
2023/06/28 08:40:11;;;;;;;10.75;7.53;;;17.10;99.90;;;;;;4939181;28;20074;-48
2023/06/28 08:42:39;;;;;;;12.32;7.20;;;17.10;99.90;;;;;;4944495;28;20027;-49
2023/06/28 08:45:05;;;;;;;11.35;7.50;;;17.20;99.90;;;;;;4957225;28;20046;-48
2023/06/28 08:47:32;;;;;;;15.25;7.90;;;17.20;99.90;;;;;;4957357;28;20043;-50
2023/06/28 08:49:59;;;;;;;11.50;7.43;;;17.20;99.90;;;;;;4957412;28;20039;-49
2023/06/28 08:52:26;;;;;;;10.45;6.95;;;17.20;99.90;;;;;;4948512;28;20051;-49
2023/06/28 08:54:52;;;;;;;13.65;7.40;;;17.20;99.90;;;;;;4958901;28;20451;-49
2023/06/28 08:57:20;;;;;;;11.63;7.30;;;17.20;99.90;;;;;;4942934;28;20045;-50
2023/06/28 08:59:46;;;;;;;10.10;6.72;;;17.20;99.90;;;;;;4956565;28;20495;-52
2023/06/28 09:02:17;;;;;;;12.10;7.90;;;17.20;99.90;;;;;;4958638;28;20446;-52
2023/06/28 09:04:45;;;;;;;13.30;8.02;;;17.20;99.90;;;;;;4958038;28;20042;-52
2023/06/28 09:07:15;;;;;;;10.48;7.72;;;17.20;99.90;;;;;;4958518;28;20205;-51
2023/06/28 09:09:43;;;;;;;11.63;7.28;;;17.20;99.90;;;;;;4956462;28;20050;-49
2023/06/28 09:12:11;;;;;;;13.18;7.43;;;17.20;99.90;;;;;;4957645;28;20471;-51
2023/06/28 09:14:36;;;;;;;13.70;7.85;;;17.10;99.90;;;;;;4956877;28;20121;-51
2023/06/28 09:17:02;;;;;;;9.55;7.70;;;17.10;99.90;;;;;;4958815;28;20126;-52
2023/06/28 09:19:28;;;;;;;16.20;8.40;;;17.10;99.90;;;;;;4951364;28;20735;-51
2023/06/28 09:22:02;;;;;;;13.73;8.15;;;17.00;99.90;;;;;;4956725;28;20121;-49
2023/06/28 09:24:33;;;;;;;14.18;9.02;;;17.00;99.90;;;;;;4959322;28;20181;-48
2023/06/28 09:27:05;;;;;;;14.10;9.63;;;17.00;99.90;;;;;;4941187;28;20046;-52
2023/06/28 09:29:31;;;;;;;16.45;9.07;;;17.00;99.90;;;;;;4926694;28;20035;-51
2023/06/28 09:31:57;;;;;;;17.45;10.35;;;17.00;99.90;;;;;;4936655;28;20043;-49
2023/06/28 09:34:24;;;;;;;18.60;9.55;;;17.00;99.90;;;;;;4956614;28;20547;-51
2023/06/28 09:36:54;;;;;;;16.15;9.68;;;17.10;99.90;;;;;;4956620;28;20070;-53
2023/06/28 09:39:20;;;;;;;18.23;10.10;;;17.00;99.90;;;;;;4957337;28;20031;-51
2023/06/28 09:41:48;;;;;;;17.40;10.00;;;17.10;99.90;;;;;;4925466;28;20054;-49
2023/06/28 09:44:13;;;;;;;15.68;9.45;;;17.10;99.90;;;;;;4958058;28;20043;-49
2023/06/28 09:46:46;;;;;;;13.07;9.88;;;17.20;99.90;;;;;;4955721;28;20050;-52
2023/06/28 09:49:23;;;;;;;12.25;10.05;;;17.20;99.90;;;;;;4955421;28;20388;-53
2023/06/28 09:52:01;;;;;;;17.95;10.00;;;17.30;99.90;;;;;;4955323;28;20042;-49
2023/06/28 09:54:44;;;;;;;18.25;10.00;;;17.30;99.90;;;;;;4957912;28;20065;-52
2023/06/28 09:57:10;;;;;;;15.85;10.07;;;17.30;99.90;;;;;;4942708;28;20484;-49
2023/06/28 09:59:37;;;;;;;13.38;9.68;;;17.40;99.90;;;;;;4953206;28;20047;-48
2023/06/28 10:02:10;;;;;;;14.27;10.15;;;17.40;99.90;;;;;;4954479;28;20410;-51
2023/06/28 10:04:37;;;;;;;18.67;9.45;;;17.40;99.90;;;;;;4945570;28;20058;-49
2023/06/28 10:07:05;;;;;;;16.00;10.18;;;17.30;99.90;;;;;;4957398;28;21939;-48
2023/06/28 10:09:36;;;;;;;14.10;10.07;;;17.20;99.90;;;;;;4957687;28;20039;-49
2023/06/28 10:12:09;;;;;;;15.20;10.45;;;17.30;99.90;;;;;;4921076;28;20492;-51
2023/06/28 10:14:38;;;;;;;17.45;11.07;;;17.30;99.90;;;;;;4935085;28;20043;-51
2023/06/28 10:17:05;;;;;;;17.77;11.02;;;17.20;99.90;;;;;;4955541;28;20051;-50
2023/06/28 10:19:32;;;;;;;18.38;10.55;;;17.30;99.90;;;;;;4956463;28;20074;-51
2023/06/28 10:21:59;;;;;;;16.88;10.27;;;17.30;99.90;;;;;;4954380;28;20108;-50
2023/06/28 10:24:31;;;;;;;14.45;10.35;;;17.30;99.90;;;;;;4957530;28;20047;-51
2023/06/28 10:27:00;;;;;;;16.30;10.57;;;17.40;99.90;;;;;;4937288;28;20102;-48
2023/06/28 10:29:26;;;;;;;17.50;11.05;;;17.40;99.90;;;;;;4959563;28;20361;-49
2023/06/28 10:31:53;;;;;;;18.10;10.45;;;17.50;99.90;;;;;;4959874;28;20089;-50
2023/06/28 10:34:19;;;;;;;16.45;10.23;;;17.40;99.90;;;;;;4958463;28;20082;-48
2023/06/28 10:36:45;;;;;;;15.25;10.80;;;17.50;99.90;;;;;;4943677;28;20400;-49
2023/06/28 10:39:11;;;;;;;17.58;10.93;;;17.50;99.90;;;;;;4955850;28;20046;-49
2023/06/28 10:41:37;;;;;;;16.30;10.65;;;17.40;99.90;;;;;;4956190;28;20071;-53
2023/06/28 10:44:07;;;;;;;17.80;11.48;;;17.40;99.90;;;;;;4960411;28;20118;-51
2023/06/28 10:46:33;;;;;;;15.05;10.93;;;17.40;99.90;;;;;;4959507;28;20057;-51
2023/06/28 10:48:59;;;;;;;15.02;11.13;;;17.40;99.90;;;;;;4959862;28;20094;-52
2023/06/28 10:51:31;;;;;;;17.48;11.23;;;17.40;99.90;;;;;;4956471;28;20102;-51
2023/06/28 10:54:13;;;;;;;13.98;10.55;;;17.40;99.90;;;;;;4956994;28;20982;-52
2023/06/28 10:56:49;;;;;;;17.48;10.15;;;17.40;99.90;;;;;;4956533;28;20479;-50
2023/06/28 10:59:15;;;;;;;15.63;10.68;;;17.40;99.90;;;;;;4959990;28;20103;-52
2023/06/28 11:01:51;;;;;;;15.52;10.55;;;17.40;99.90;;;;;;4961345;28;20543;-50
2023/06/28 11:04:26;;;;;;;12.77;10.20;;;17.40;99.90;;;;;;4961331;28;20070;-50
2023/06/28 11:07:07;;;;;;;14.52;10.48;;;17.40;99.90;;;;;;4944901;28;20140;-49
2023/06/28 11:09:34;;;;;;;17.08;10.73;;;17.40;99.90;;;;;;4961573;28;20039;-49
2023/06/28 11:12:00;;;;;;;17.00;11.68;;;17.40;99.90;;;;;;4959748;28;20043;-48
2023/06/28 11:14:29;;;;;;;15.60;10.57;;;17.40;99.90;;;;;;4962213;28;21227;-49
2023/06/28 11:17:14;;;;;;;17.60;11.35;;;17.40;99.90;;;;;;4960494;28;20109;-49
2023/06/28 11:19:42;;;;;;;17.42;11.02;;;17.40;99.90;;;;;;4964252;28;20054;-50
2023/06/28 11:22:08;;;;;;;17.00;11.27;;;17.40;99.90;;;;;;4960850;28;20083;-49
2023/06/28 11:24:33;;;;;;;16.00;10.73;;;17.50;99.90;;;;;;4962691;28;20034;-50
2023/06/28 11:27:00;;;;;;;17.20;11.35;;;17.40;99.90;;;;;;4960604;28;20043;-51
2023/06/28 11:29:26;;;;;;;16.95;12.13;;;17.40;99.90;;;;;;4961187;28;20035;-52
2023/06/28 11:31:55;;;;;;;17.98;11.27;;;17.40;99.90;;;;;;4957896;28;20035;-52
2023/06/28 11:34:23;;;;;;;18.42;11.50;;;17.50;99.90;;;;;;4942104;28;20069;-50
2023/06/28 11:36:50;;;;;;;17.80;12.00;;;17.40;99.90;;;;;;4963307;28;20082;-51
2023/06/28 11:39:20;;;;;;;15.75;12.00;;;17.50;99.90;;;;;;4958152;28;20439;-52
2023/06/28 11:41:46;;;;;;;17.95;12.13;;;17.40;99.90;;;;;;4956449;28;20066;-50
2023/06/28 11:44:13;;;;;;;19.83;12.43;;;17.40;99.90;;;;;;4948531;28;20140;-51
2023/06/28 11:46:41;;;;;;;19.02;13.25;;;17.40;99.90;;;;;;4954054;28;20404;-53
2023/06/28 11:49:07;;;;;;;17.77;12.45;;;17.40;99.90;;;;;;4941901;28;20049;-50
2023/06/28 11:51:33;;;;;;;21.10;12.93;;;17.40;99.90;;;;;;4958755;28;20411;-52
2023/06/28 11:53:59;;;;;;;18.20;12.65;;;17.40;99.90;;;;;;4958418;28;20319;-48
2023/06/28 11:56:36;;;;;;;21.80;13.15;;;17.40;99.90;;;;;;4958859;28;20121;-49
2023/06/28 11:59:16;;;;;;;21.55;13.18;;;17.50;99.90;;;;;;4952434;28;20496;-49
2023/06/28 12:01:43;;;;;;;26.58;13.82;;;17.50;99.90;;;;;;4960359;28;20499;-49
2023/06/28 12:04:20;;;;;;;21.77;13.90;;;17.60;99.90;;;;;;4958695;28;20043;-52
2023/06/28 12:06:47;;;;;;;17.58;13.02;;;17.60;99.90;;;;;;4960292;28;20050;-47
2023/06/28 12:09:29;;;;;;;17.95;13.15;;;17.60;99.90;;;;;;4960791;28;20082;-49
2023/06/28 12:12:05;;;;;;;20.42;13.15;;;17.70;99.90;;;;;;4961282;28;20042;-49
2023/06/28 12:14:42;;;;;;;20.75;13.57;;;17.70;99.90;;;;;;4958799;28;20035;-49
2023/06/28 12:17:08;;;;;;;17.90;13.55;;;17.70;99.90;;;;;;4942639;28;20047;-51
2023/06/28 12:19:35;;;;;;;20.73;14.45;;;17.80;99.90;;;;;;4957651;28;20119;-50
2023/06/28 12:22:06;;;;;;;21.30;14.75;;;17.80;99.90;;;;;;4960804;28;20058;-49
2023/06/28 12:24:35;;;;;;;19.80;13.68;;;17.80;99.90;;;;;;4944862;28;20495;-50
2023/06/28 12:27:05;;;;;;;21.15;14.05;;;17.90;99.90;;;;;;4959890;28;20396;-52
2023/06/28 12:29:35;;;;;;;23.00;14.75;;;17.90;99.90;;;;;;4958272;28;20035;-51
2023/06/28 12:32:16;;;;;;;24.73;14.43;;;17.90;99.90;;;;;;4953966;28;20039;-48
2023/06/28 12:34:49;;;;;;;26.50;14.85;;;18.00;99.90;;;;;;4954266;28;20059;-52
2023/06/28 12:37:14;;;;;;;19.23;14.18;;;18.00;99.90;;;;;;4957124;28;20130;-52